地図

経路データ

SID SEASON NUMBER BASIN SUBBASIN NAME ISO_TIME NATURE LAT LON WMO_WIND WMO_PRES WMO_AGENCY TRACK_TYPE DIST2LAND LANDFALL IFLAG USA_AGENCY USA_ATCF_ID USA_LAT USA_LON USA_RECORD USA_STATUS USA_WIND USA_PRES USA_SSHS USA_R34_NE USA_R34_SE USA_R34_SW USA_R34_NW USA_R50_NE USA_R50_SE USA_R50_SW USA_R50_NW USA_R64_NE USA_R64_SE USA_R64_SW USA_R64_NW USA_POCI USA_ROCI USA_RMW USA_EYE TOKYO_LAT TOKYO_LON TOKYO_GRADE TOKYO_WIND TOKYO_PRES TOKYO_R50_DIR TOKYO_R50_LONG TOKYO_R50_SHORT TOKYO_R30_DIR TOKYO_R30_LONG TOKYO_R30_SHORT TOKYO_LAND CMA_LAT CMA_LON CMA_CAT CMA_WIND CMA_PRES HKO_LAT HKO_LON HKO_CAT HKO_WIND HKO_PRES NEWDELHI_LAT NEWDELHI_LON NEWDELHI_GRADE NEWDELHI_WIND NEWDELHI_PRES NEWDELHI_CI NEWDELHI_DP NEWDELHI_POCI REUNION_LAT REUNION_LON REUNION_TYPE REUNION_WIND REUNION_PRES REUNION_TNUM REUNION_CI REUNION_RMW REUNION_R34_NE REUNION_R34_SE REUNION_R34_SW REUNION_R34_NW REUNION_R50_NE REUNION_R50_SE REUNION_R50_SW REUNION_R50_NW REUNION_R64_NE REUNION_R64_SE REUNION_R64_SW REUNION_R64_NW BOM_LAT BOM_LON BOM_TYPE BOM_WIND BOM_PRES BOM_TNUM BOM_CI BOM_RMW BOM_R34_NE BOM_R34_SE BOM_R34_SW BOM_R34_NW BOM_R50_NE BOM_R50_SE BOM_R50_SW BOM_R50_NW BOM_R64_NE BOM_R64_SE BOM_R64_SW BOM_R64_NW BOM_ROCI BOM_POCI BOM_EYE BOM_POS_METHOD BOM_PRES_METHOD NADI_LAT NADI_LON NADI_CAT NADI_WIND NADI_PRES WELLINGTON_LAT WELLINGTON_LON WELLINGTON_WIND WELLINGTON_PRES DS824_LAT DS824_LON DS824_STAGE DS824_WIND DS824_PRES TD9636_LAT TD9636_LON TD9636_STAGE TD9636_WIND TD9636_PRES TD9635_LAT TD9635_LON TD9635_WIND TD9635_PRES TD9635_ROCI NEUMANN_LAT NEUMANN_LON NEUMANN_CLASS NEUMANN_WIND NEUMANN_PRES MLC_LAT MLC_LON MLC_CLASS MLC_WIND MLC_PRES USA_GUST BOM_GUST BOM_GUST_PER REUNION_GUST REUNION_GUST_PER USA_SEAHGT USA_SEARAD_NE USA_SEARAD_SE USA_SEARAD_SW USA_SEARAD_NW STORM_SPEED STORM_DIR
1889259N20280 1889 25 NA CS NOT_NAMED 1889-09-15 12:00:00 TS 19.5000 -80.0000 main 217 217 _____________O -1 19.5000 -80.0000 TS 35 6 323
1889259N20280 1889 25 NA CS NOT_NAMED 1889-09-15 15:00:00 TS 19.7500 -80.1999 main 213 194 _____________P -1 19.7500 -80.1999 TS 37 6 323
1889259N20280 1889 25 NA CS NOT_NAMED 1889-09-15 18:00:00 TS 20.0000 -80.4000 main 194 175 _____________O -1 20.0000 -80.4000 TS 40 6 323
1889259N20280 1889 25 NA CS NOT_NAMED 1889-09-15 21:00:00 TS 20.2500 -80.6001 main 178 157 _____________P -1 20.2500 -80.6001 TS 42 6 323
1889259N20280 1889 25 NA CS NOT_NAMED 1889-09-16 00:00:00 TS 20.5000 -80.8000 main 157 145 _____________O -1 20.5000 -80.8000 TS 45 6 323
1889259N20280 1889 25 NA CS NOT_NAMED 1889-09-16 03:00:00 TS 20.7500 -81.0075 main 135 111 _____________P -1 20.7500 -81.0075 TS 45 6 323
1889259N20280 1889 25 NA CS NOT_NAMED 1889-09-16 06:00:00 TS 21.0000 -81.2000 main 111 90 _____________O -1 21.0000 -81.2000 TS 45 6 327
1889259N20280 1889 25 NA CS NOT_NAMED 1889-09-16 09:00:00 TS 21.2499 -81.3501 main 91 63 _____________P -1 21.2499 -81.3501 TS 45 6 331
1889259N20280 1889 25 NA CS NOT_NAMED 1889-09-16 12:00:00 TS 21.5000 -81.5000 main 63 49 _____________O -1 21.5000 -81.5000 TS 45 6 327
1889259N20280 1889 25 NA CS NOT_NAMED 1889-09-16 15:00:00 TS 21.7500 -81.6925 main 44 24 _____________P -1 21.7500 -81.6925 TS 45 6 323
1889259N20280 1889 25 NA CS NOT_NAMED 1889-09-16 18:00:00 TS 22.0000 -81.9000 main 24 11 _____________O -1 22.0000 -81.9000 TS 45 6 323
1889259N20280 1889 25 NA CS NOT_NAMED 1889-09-16 21:00:00 TS 22.2500 -82.1001 main 15 0 _____________P -1 22.2500 -82.1001 TS 45 6 323
1889259N20280 1889 25 NA CS NOT_NAMED 1889-09-17 00:00:00 TS 22.5000 -82.3000 main 15 0 _____________O -1 22.5000 -82.3000 TS 45 6 323
1889259N20280 1889 25 NA NA NOT_NAMED 1889-09-17 03:00:00 TS 22.7500 -82.5075 main 0 0 _____________P -1 22.7500 -82.5075 TS 45 6 324
1889259N20280 1889 25 NA NA NOT_NAMED 1889-09-17 06:00:00 TS 23.0000 -82.7000 main 0 0 _____________O -1 23.0000 -82.7000 TS 45 6 321
1889259N20280 1889 25 NA NA NOT_NAMED 1889-09-17 09:00:00 TS 23.1900 -82.8874 main 24 24 _____________P -1 23.1900 -82.8874 TS 45 6 331
1889259N20280 1889 25 NA GM NOT_NAMED 1889-09-17 12:00:00 TS 23.5000 -83.0000 main 59 59 _____________O -1 23.5000 -83.0000 TS 45 9 354
1889259N20280 1889 25 NA GM NOT_NAMED 1889-09-17 15:00:00 TS 24.0975 -82.9803 main 122 122 _____________P -1 24.0975 -82.9803 TS 45 13 4
1889259N20280 1889 25 NA GM NOT_NAMED 1889-09-17 18:00:00 TS 24.8000 -82.9000 main 172 132 _____________O -1 24.8000 -82.9000 TS 45 13 4
1889259N20280 1889 25 NA GM NOT_NAMED 1889-09-17 21:00:00 TS 25.4299 -82.8722 main 132 96 _____________P -1 25.4299 -82.8722 TS 42 12 4
1889259N20280 1889 25 NA GM NOT_NAMED 1889-09-18 00:00:00 TS 26.0000 -82.8000 main 96 53 _____________O -1 26.0000 -82.8000 TS 40 11 12
1889259N20280 1889 25 NA GM NOT_NAMED 1889-09-18 03:00:00 TS 26.4725 -82.6226 main 44 9 _____________P -1 26.4725 -82.6226 TS 37 10 22
1889259N20280 1889 25 NA GM NOT_NAMED 1889-09-18 06:00:00 TS 26.9000 -82.4000 main 9 0 _____________O -1 26.9000 -82.4000 TS 35 10 23
1889259N20280 1889 25 NA NA NOT_NAMED 1889-09-18 09:00:00 TS 27.4175 -82.1778 main 0 0 _____________P -1 27.4175 -82.1778 TS 32 10 22
1889259N20280 1889 25 NA NA NOT_NAMED 1889-09-18 12:00:00 TS 27.8000 -82.0000 main 0 0 _____________O -1 27.8000 -82.0000 TD 30 5 25
1889259N20280 1889 25 NA NA NOT_NAMED 1889-09-18 15:00:00 TS 27.8749 -81.9347 main 0 0 _____________P -1 27.8749 -81.9347 TD 30 1 90
1889259N20280 1889 25 NA NA NOT_NAMED 1889-09-18 18:00:00 TS 27.8000 -81.9000 main 0 0 _____________O -1 27.8000 -81.9000 TD 30 2 134
1889259N20280 1889 25 NA NA NOT_NAMED 1889-09-18 21:00:00 TS 27.7575 -81.8000 main 0 0 _____________P -1 27.7575 -81.8000 TD 30 2 120
1889259N20280 1889 25 NA NA NOT_NAMED 1889-09-19 00:00:00 TS 27.7000 -81.7000 main 0 0 _____________O -1 27.7000 -81.7000 TD 30 2 129
1889259N20280 1889 25 NA NA NOT_NAMED 1889-09-19 03:00:00 TS 27.6500 -81.6425 main 0 0 _____________P -1 27.6500 -81.6425 TD 30 1 140
1889259N20280 1889 25 NA NA NOT_NAMED 1889-09-19 06:00:00 TS 27.6000 -81.6000 main 0 0 _____________O -1 27.6000 -81.6000 TD 30 1 143
1889259N20280 1889 25 NA NA NOT_NAMED 1889-09-19 09:00:00 TS 27.5500 -81.5525 main 0 0 _____________P -1 27.5500 -81.5525 TD 30 1 140
1889259N20280 1889 25 NA NA NOT_NAMED 1889-09-19 12:00:00 TS 27.5000 -81.5000 main 0 _____________O -1 27.5000 -81.5000 TD 30 1 137

IBTrACS Databaseについて

本データベースは、米国NOAAが公開する1842年以降の世界の熱帯低気圧のベストトラックデータアーカイブInternational Best Track Archive for Climate Stewardship (IBTrACS)を、ウェブで閲覧しやすい形式に変換したものです。

最終更新日:2021-11-26